createdAt,value
2019-04-16T00:00:27.808Z,47.80
2019-04-16T00:01:22.771Z,47.19
2019-04-16T00:02:22.761Z,47.60
2019-04-16T00:03:23.109Z,47.69
2019-04-16T00:04:25.012Z,47.39
2019-04-16T00:05:27.511Z,47.80
2019-04-16T00:06:23.722Z,47.39
2019-04-16T00:07:22.709Z,47.39
2019-04-16T00:08:27.745Z,47.39
2019-04-16T00:09:23.690Z,47.80
2019-04-16T00:10:22.679Z,47.80
2019-04-16T00:11:27.680Z,47.49
2019-04-16T00:12:22.657Z,48.00
2019-04-16T00:13:22.631Z,47.19
2019-04-16T00:14:22.662Z,47.29
2019-04-16T00:15:22.610Z,46.47
2019-04-16T00:16:22.602Z,47.29
2019-04-16T00:17:22.589Z,47.60
2019-04-16T00:18:22.597Z,47.49
2019-04-16T00:19:22.563Z,47.39
2019-04-16T00:20:22.565Z,47.69
2019-04-16T00:21:22.548Z,47.29
2019-04-16T00:22:27.554Z,47.60
2019-04-16T00:23:22.522Z,47.61
2019-04-16T00:24:22.574Z,47.61
2019-04-16T00:25:22.528Z,47.41
2019-04-16T00:26:26.536Z,47.61
2019-04-16T00:27:22.478Z,47.61
2019-04-16T00:28:22.470Z,47.72
2019-04-16T00:29:22.452Z,47.82
2019-04-16T00:30:22.455Z,47.82
2019-04-16T00:31:22.428Z,47.52
2019-04-16T00:32:22.421Z,47.31
2019-04-16T00:33:27.428Z,47.44
2019-04-16T00:34:22.396Z,47.64
2019-04-16T00:35:22.393Z,47.23
2019-04-16T00:36:22.372Z,47.85
2019-04-16T00:37:22.366Z,47.94
2019-04-16T00:38:23.227Z,47.23
2019-04-16T00:39:24.824Z,47.85
2019-04-16T00:40:26.407Z,47.94
2019-04-16T00:41:22.319Z,48.15
2019-04-16T00:42:22.328Z,47.74
2019-04-16T00:43:22.292Z,47.74
2019-04-16T00:44:27.304Z,47.94
2019-04-16T00:45:22.281Z,48.05
2019-04-16T00:46:22.264Z,47.85
2019-04-16T00:47:22.257Z,47.76
2019-04-16T00:48:22.235Z,48.05
2019-04-16T00:49:26.287Z,47.86
2019-04-16T00:50:22.221Z,48.27
2019-04-16T00:51:22.210Z,47.97
2019-04-16T00:52:22.189Z,48.38
2019-04-16T00:53:22.197Z,48.58
2019-04-16T00:54:22.168Z,48.58
2019-04-16T00:55:27.188Z,48.58
2019-04-16T00:56:22.148Z,48.48
2019-04-16T00:57:22.142Z,48.38
2019-04-16T00:58:22.127Z,48.27
2019-04-16T00:59:24.167Z,48.79
2019-04-16T01:00:22.114Z,48.38
2019-04-16T01:01:22.088Z,48.38
2019-04-16T01:02:22.077Z,48.50
2019-04-16T01:03:22.065Z,49.01
2019-04-16T01:04:22.054Z,49.42
2019-04-16T01:05:22.081Z,49.32
2019-04-16T01:06:27.065Z,49.11
2019-04-16T01:07:22.021Z,48.91
2019-04-16T01:08:22.007Z,48.81
2019-04-16T01:09:21.999Z,49.22
2019-04-16T01:10:22.002Z,49.52
2019-04-16T01:11:21.981Z,49.52
2019-04-16T01:12:21.963Z,49.11
2019-04-16T01:13:24.505Z,49.73
2019-04-16T01:14:24.214Z,49.01
2019-04-16T01:15:21.937Z,49.73
2019-04-16T01:16:21.919Z,50.16
2019-04-16T01:17:26.931Z,50.47
2019-04-16T01:18:21.895Z,50.67
2019-04-16T01:19:21.887Z,50.16
2019-04-16T01:20:21.885Z,50.26
2019-04-16T01:21:21.862Z,50.26
2019-04-16T01:22:21.848Z,50.78
2019-04-16T01:23:21.847Z,50.98
2019-04-16T01:24:21.831Z,50.88
2019-04-16T01:25:23.276Z,50.47
2019-04-16T01:26:24.295Z,50.57
2019-04-16T01:27:21.808Z,50.90
2019-04-16T01:28:29.421Z,50.90
2019-04-16T01:29:22.771Z,51.50
2019-04-16T01:30:21.759Z,51.10
2019-04-16T01:31:21.760Z,51.08
2019-04-16T01:32:21.741Z,51.31
2019-04-16T01:33:21.739Z,51.10
2019-04-16T01:34:21.712Z,51.42
2019-04-16T01:35:21.708Z,51.51
2019-04-16T01:36:22.945Z,51.51
2019-04-16T01:37:25.586Z,52.13
2019-04-16T01:38:21.671Z,51.93
2019-04-16T01:39:26.697Z,52.03
2019-04-16T01:40:21.644Z,52.23
2019-04-16T01:41:22.597Z,51.82
2019-04-16T01:42:23.680Z,51.82
2019-04-16T01:43:25.578Z,51.72
2019-04-16T01:44:21.609Z,51.54
2019-04-16T01:45:21.588Z,51.72
2019-04-16T01:46:21.587Z,52.13
2019-04-16T01:47:21.565Z,52.23
2019-04-16T01:48:21.554Z,52.13
2019-04-16T01:49:21.544Z,52.34
2019-04-16T01:50:26.572Z,52.05
2019-04-16T01:51:21.537Z,52.13
2019-04-16T01:52:21.514Z,51.95
2019-04-16T01:53:21.737Z,51.93
2019-04-16T01:54:22.849Z,52.85
2019-04-16T01:55:25.512Z,52.56
2019-04-16T01:56:21.487Z,52.56
2019-04-16T01:57:21.454Z,52.47
2019-04-16T01:58:21.443Z,52.97
2019-04-16T01:59:21.431Z,53.08
2019-04-16T02:00:21.426Z,52.26
2019-04-16T02:01:26.444Z,52.47
2019-04-16T02:02:21.400Z,52.77
2019-04-16T02:03:21.387Z,53.59
2019-04-16T02:04:21.374Z,53.18
2019-04-16T02:05:23.213Z,53.49
2019-04-16T02:06:25.657Z,53.69
2019-04-16T02:07:22.341Z,53.90
2019-04-16T02:08:21.332Z,53.31
2019-04-16T02:09:22.837Z,53.92
2019-04-16T02:10:21.307Z,53.51
2019-04-16T02:11:21.309Z,54.02
2019-04-16T02:12:26.308Z,53.41
2019-04-16T02:13:21.279Z,54.02
2019-04-16T02:14:22.409Z,54.02
2019-04-16T02:15:21.853Z,53.72
2019-04-16T02:16:22.404Z,53.72
2019-04-16T02:17:21.229Z,53.92
2019-04-16T02:18:21.225Z,54.02
2019-04-16T02:19:21.211Z,54.23
2019-04-16T02:20:21.203Z,53.92
2019-04-16T02:21:21.186Z,54.02
2019-04-16T02:22:21.183Z,53.41
2019-04-16T02:23:26.198Z,53.74
2019-04-16T02:24:21.165Z,53.72
2019-04-16T02:25:21.140Z,53.82
2019-04-16T02:26:23.561Z,53.61
2019-04-16T02:27:23.483Z,53.92
2019-04-16T02:28:21.747Z,54.05
2019-04-16T02:29:21.113Z,54.33
2019-04-16T02:30:21.102Z,54.13
2019-04-16T02:31:21.072Z,54.33
2019-04-16T02:32:21.069Z,54.33
2019-04-16T02:33:21.050Z,54.02
2019-04-16T02:34:26.072Z,54.33
2019-04-16T02:35:21.028Z,54.23
2019-04-16T02:36:21.028Z,53.82
2019-04-16T02:37:21.012Z,54.53
2019-04-16T02:38:20.994Z,54.85
2019-04-16T02:39:25.509Z,54.95
2019-04-16T02:40:21.980Z,54.53
2019-04-16T02:41:23.300Z,54.53
2019-04-16T02:42:20.957Z,54.23
2019-04-16T02:43:20.953Z,54.33
2019-04-16T02:44:20.935Z,54.64
2019-04-16T02:45:25.951Z,54.23
2019-04-16T02:46:20.913Z,54.23
2019-04-16T02:47:20.893Z,54.44
2019-04-16T02:48:20.898Z,54.53
2019-04-16T02:49:24.443Z,54.64
2019-04-16T02:50:20.889Z,54.23
2019-04-16T02:51:20.849Z,54.46
2019-04-16T02:52:20.869Z,54.44
2019-04-16T02:53:24.299Z,54.64
2019-04-16T02:54:20.840Z,54.74
2019-04-16T02:55:20.808Z,54.36
2019-04-16T02:56:25.820Z,54.95
2019-04-16T02:57:25.944Z,54.33
2019-04-16T02:58:21.786Z,54.23
2019-04-16T02:59:20.779Z,54.64
2019-04-16T03:00:20.753Z,55.15
2019-04-16T03:01:21.512Z,54.44
2019-04-16T03:02:23.069Z,54.02
2019-04-16T03:03:22.238Z,54.46
2019-04-16T03:04:20.719Z,54.33
2019-04-16T03:05:20.696Z,54.97
2019-04-16T03:06:20.689Z,54.46
2019-04-16T03:07:25.705Z,54.25
2019-04-16T03:08:20.673Z,54.25
2019-04-16T03:09:20.652Z,54.23
2019-04-16T03:10:20.649Z,53.92
2019-04-16T03:11:20.633Z,53.92
2019-04-16T03:12:21.614Z,53.64
2019-04-16T03:13:23.367Z,53.72
2019-04-16T03:14:20.593Z,54.23
2019-04-16T03:15:20.582Z,53.64
2019-04-16T03:16:20.571Z,53.64
2019-04-16T03:17:20.568Z,53.74
2019-04-16T03:18:25.598Z,53.95
2019-04-16T03:19:20.534Z,53.85
2019-04-16T03:20:23.719Z,54.15
2019-04-16T03:21:20.516Z,54.05
2019-04-16T03:22:20.526Z,54.25
2019-04-16T03:23:20.491Z,53.85
2019-04-16T03:24:20.483Z,53.95
2019-04-16T03:25:20.472Z,53.74
2019-04-16T03:26:20.462Z,54.25
2019-04-16T03:27:22.256Z,54.15
2019-04-16T03:28:20.460Z,53.95
2019-04-16T03:29:27.562Z,53.74
2019-04-16T03:30:20.416Z,54.36
2019-04-16T03:31:23.245Z,54.25
2019-04-16T03:32:20.467Z,54.36
2019-04-16T03:33:20.385Z,54.46
2019-04-16T03:34:22.025Z,54.15
2019-04-16T03:35:25.183Z,54.46
2019-04-16T03:36:21.345Z,53.95
2019-04-16T03:37:20.365Z,54.25
2019-04-16T03:38:20.334Z,54.36
2019-04-16T03:39:20.312Z,54.57
2019-04-16T03:40:25.996Z,54.77
2019-04-16T03:41:20.294Z,54.66
2019-04-16T03:42:20.277Z,54.77
2019-04-16T03:43:20.283Z,55.18
2019-04-16T03:44:20.254Z,55.18
2019-04-16T03:45:20.246Z,55.62
2019-04-16T03:46:20.233Z,55.28
2019-04-16T03:47:20.219Z,55.49
2019-04-16T03:48:20.613Z,55.38
2019-04-16T03:49:20.198Z,55.41
2019-04-16T03:50:20.190Z,55.62
2019-04-16T03:51:25.201Z,55.90
2019-04-16T03:52:20.170Z,55.79
2019-04-16T03:53:20.172Z,55.51
2019-04-16T03:54:22.366Z,56.54
2019-04-16T03:55:25.437Z,57.15
2019-04-16T03:56:21.119Z,57.26
2019-04-16T03:57:20.122Z,57.56
2019-04-16T03:58:20.106Z,57.46
2019-04-16T03:59:20.084Z,57.67
2019-04-16T04:00:20.073Z,57.90
2019-04-16T04:01:20.061Z,58.11
2019-04-16T04:02:25.074Z,57.98
2019-04-16T04:03:20.060Z,58.18
2019-04-16T04:04:20.028Z,58.18
2019-04-16T04:05:20.022Z,58.00
2019-04-16T04:06:20.003Z,58.49
2019-04-16T04:07:19.997Z,57.90
2019-04-16T04:08:19.993Z,58.41
2019-04-16T04:09:22.183Z,58.41
2019-04-16T04:10:30.385Z,58.31
2019-04-16T04:11:20.947Z,58.21
2019-04-16T04:12:19.939Z,58.11
2019-04-16T04:13:24.966Z,58.51
2019-04-16T04:14:23.257Z,58.51
2019-04-16T04:15:19.915Z,58.49
2019-04-16T04:16:19.894Z,57.98
2019-04-16T04:17:19.881Z,58.31
2019-04-16T04:18:19.874Z,59.75
2019-04-16T04:19:19.864Z,59.54
2019-04-16T04:20:19.871Z,59.75
2019-04-16T04:21:22.320Z,60.47
2019-04-16T04:22:22.737Z,59.85
2019-04-16T04:23:20.820Z,60.67
2019-04-16T04:24:24.838Z,60.26
2019-04-16T04:25:19.807Z,60.77
2019-04-16T04:26:19.784Z,61.80
2019-04-16T04:27:19.858Z,61.18
2019-04-16T04:28:20.611Z,61.29
2019-04-16T04:29:20.679Z,61.39
2019-04-16T04:30:19.739Z,60.88
2019-04-16T04:31:19.734Z,60.47
2019-04-16T04:32:19.712Z,59.75
2019-04-16T04:33:19.699Z,60.05
2019-04-16T04:34:19.690Z,60.36
2019-04-16T04:35:24.723Z,59.85
2019-04-16T04:36:22.784Z,60.47
2019-04-16T04:37:20.726Z,60.16
2019-04-16T04:38:19.644Z,59.75
2019-04-16T04:39:19.633Z,60.88
2019-04-16T04:40:19.649Z,60.88
2019-04-16T04:41:19.895Z,60.98
2019-04-16T04:42:19.954Z,61.70
2019-04-16T04:43:19.587Z,60.88
2019-04-16T04:44:19.575Z,61.70
2019-04-16T04:45:19.568Z,60.98
2019-04-16T04:46:24.592Z,61.18
2019-04-16T04:47:20.210Z,61.90
2019-04-16T04:48:23.023Z,61.49
2019-04-16T04:49:19.742Z,61.18
2019-04-16T04:50:19.506Z,61.21
2019-04-16T04:51:19.507Z,61.83
2019-04-16T04:52:19.496Z,62.21
2019-04-16T04:53:20.076Z,62.41
2019-04-16T04:54:22.622Z,62.83
2019-04-16T04:55:19.477Z,63.65
2019-04-16T04:56:20.049Z,64.40
2019-04-16T04:57:24.453Z,64.91
2019-04-16T04:58:19.416Z,65.35
2019-04-16T04:59:19.404Z,65.66
2019-04-16T05:00:19.409Z,66.38
2019-04-16T05:01:19.392Z,66.58
2019-04-16T05:02:19.373Z,66.58
2019-04-16T05:03:19.362Z,66.93
2019-04-16T05:04:20.819Z,66.61
2019-04-16T05:05:24.538Z,66.41
2019-04-16T05:06:20.514Z,66.61
2019-04-16T05:07:19.315Z,66.72
2019-04-16T05:08:24.330Z,66.58
2019-04-16T05:09:19.295Z,66.48
2019-04-16T05:10:19.293Z,66.41
2019-04-16T05:11:19.280Z,66.51
2019-04-16T05:12:21.274Z,66.10
2019-04-16T05:13:23.900Z,66.93
2019-04-16T05:14:20.235Z,66.61
2019-04-16T05:15:19.237Z,66.51
2019-04-16T05:16:19.249Z,66.51
2019-04-16T05:17:19.210Z,66.61
2019-04-16T05:18:19.190Z,66.51
2019-04-16T05:19:24.205Z,66.20
2019-04-16T05:20:19.168Z,66.93
2019-04-16T05:21:19.592Z,66.61
2019-04-16T05:22:21.557Z,66.72
2019-04-16T05:23:19.139Z,66.07
2019-04-16T05:24:19.123Z,66.58
2019-04-16T05:25:19.110Z,66.28
2019-04-16T05:26:19.112Z,66.58
2019-04-16T05:27:19.099Z,66.38
2019-04-16T05:28:19.084Z,66.28
2019-04-16T05:29:19.105Z,66.38
2019-04-16T05:30:24.075Z,66.17
2019-04-16T05:31:24.382Z,66.28
2019-04-16T05:32:20.041Z,66.48
2019-04-16T05:33:19.039Z,66.38
2019-04-16T05:34:19.008Z,66.58
2019-04-16T05:35:18.998Z,66.48
2019-04-16T05:36:21.039Z,66.66
2019-04-16T05:37:19.806Z,66.25
2019-04-16T05:38:20.467Z,65.73
2019-04-16T05:39:18.955Z,65.83
2019-04-16T05:40:18.947Z,65.63
2019-04-16T05:41:23.951Z,65.09
2019-04-16T05:42:18.930Z,64.34
2019-04-16T05:43:22.082Z,63.69
2019-04-16T05:44:18.896Z,63.05
2019-04-16T05:45:18.907Z,61.89
2019-04-16T05:46:18.871Z,61.18
2019-04-16T05:47:18.923Z,61.18
2019-04-16T05:48:22.078Z,60.33
2019-04-16T05:49:18.841Z,61.01
2019-04-16T05:50:18.832Z,59.86
2019-04-16T05:51:18.820Z,59.83
2019-04-16T05:52:23.849Z,59.19
2019-04-16T05:53:18.794Z,57.93
2019-04-16T05:54:18.808Z,56.79
2019-04-16T05:55:19.387Z,56.45
2019-04-16T05:56:20.200Z,56.89
2019-04-16T05:57:18.771Z,56.89
2019-04-16T05:58:18.738Z,55.71
2019-04-16T05:59:18.741Z,55.69
2019-04-16T06:00:18.720Z,54.33
2019-04-16T06:01:18.709Z,54.64
2019-04-16T06:02:19.922Z,54.33
2019-04-16T06:03:23.705Z,54.36
2019-04-16T06:04:18.793Z,54.90
2019-04-16T06:05:18.669Z,55.66
2019-04-16T06:06:18.648Z,56.27
2019-04-16T06:07:18.648Z,57.22
2019-04-16T06:08:18.626Z,58.29
2019-04-16T06:09:18.612Z,58.91
2019-04-16T06:10:19.207Z,59.76
2019-04-16T06:11:28.662Z,59.78
2019-04-16T06:12:19.589Z,60.19
2019-04-16T06:13:18.569Z,60.50
2019-04-16T06:14:25.513Z,60.50
2019-04-16T06:15:21.434Z,61.32
2019-04-16T06:16:18.538Z,60.81
2019-04-16T06:17:18.536Z,60.88
2019-04-16T06:18:18.545Z,61.29
2019-04-16T06:19:18.562Z,61.52
2019-04-16T06:20:20.750Z,60.58
2019-04-16T06:21:18.485Z,60.71
2019-04-16T06:22:18.485Z,60.88
2019-04-16T06:23:18.465Z,60.03
2019-04-16T06:24:18.461Z,59.47
2019-04-16T06:25:23.779Z,57.81
2019-04-16T06:26:18.435Z,56.81
2019-04-16T06:27:18.422Z,54.74
2019-04-16T06:28:18.410Z,53.67
2019-04-16T06:29:18.389Z,53.57
2019-04-16T06:30:18.377Z,53.57
2019-04-16T06:31:18.365Z,53.39
2019-04-16T06:32:18.368Z,53.83
2019-04-16T06:33:18.345Z,54.74
2019-04-16T06:34:18.335Z,55.28
2019-04-16T06:35:18.319Z,55.30
2019-04-16T06:36:23.340Z,54.87
2019-04-16T06:37:21.579Z,53.59
2019-04-16T06:38:19.487Z,51.92
2019-04-16T06:39:18.281Z,51.69
2019-04-16T06:40:18.271Z,51.16
2019-04-16T06:41:18.254Z,50.62
2019-04-16T06:42:21.296Z,49.38
2019-04-16T06:43:18.397Z,48.44
2019-04-16T06:44:18.237Z,48.44
2019-04-16T06:45:18.208Z,49.28
2019-04-16T06:46:18.209Z,49.79
2019-04-16T06:47:23.236Z,49.81
2019-04-16T06:48:18.176Z,49.30
2019-04-16T06:49:18.853Z,49.30
2019-04-16T06:50:30.716Z,49.58
2019-04-16T06:51:19.141Z,48.44
2019-04-16T06:52:18.237Z,48.83
2019-04-16T06:53:19.501Z,48.65
2019-04-16T06:54:19.105Z,48.44
2019-04-16T06:55:18.111Z,48.02
2019-04-16T06:56:20.466Z,47.91
2019-04-16T06:57:18.078Z,47.91
2019-04-16T06:58:23.157Z,47.96
2019-04-16T06:59:18.048Z,48.14
2019-04-16T07:00:18.165Z,48.27
2019-04-16T07:01:18.030Z,48.04
2019-04-16T07:02:18.017Z,47.81
2019-04-16T07:03:18.025Z,47.30
2019-04-16T07:04:18.021Z,46.57
2019-04-16T07:05:18.049Z,46.25
2019-04-16T07:06:17.983Z,46.06
2019-04-16T07:07:17.962Z,46.78
2019-04-16T07:08:19.553Z,46.80
2019-04-16T07:09:25.272Z,46.06
2019-04-16T07:10:18.186Z,45.86
2019-04-16T07:11:17.914Z,44.44
2019-04-16T07:12:17.913Z,43.73
2019-04-16T07:13:17.916Z,44.32
2019-04-16T07:14:17.886Z,43.81
2019-04-16T07:15:22.303Z,43.79
2019-04-16T07:16:18.871Z,44.30
2019-04-16T07:17:18.830Z,44.10
2019-04-16T07:18:20.462Z,44.24
2019-04-16T07:19:17.826Z,44.13
2019-04-16T07:20:22.831Z,43.59
2019-04-16T07:21:18.379Z,43.47
2019-04-16T07:22:21.310Z,43.35
2019-04-16T07:23:17.910Z,42.72
2019-04-16T07:24:17.854Z,42.80
2019-04-16T07:25:18.351Z,41.46
2019-04-16T07:26:17.742Z,41.73
2019-04-16T07:27:20.207Z,41.02
2019-04-16T07:28:17.777Z,40.72
2019-04-16T07:29:17.753Z,41.64
2019-04-16T07:30:20.845Z,41.46
2019-04-16T07:31:33.272Z,41.09
2019-04-16T07:32:18.715Z,41.63
2019-04-16T07:33:17.716Z,40.94
2019-04-16T07:34:17.660Z,42.46
2019-04-16T07:35:17.646Z,42.46
2019-04-16T07:36:17.634Z,42.86
2019-04-16T07:37:17.619Z,42.37
2019-04-16T07:38:17.622Z,42.47
2019-04-16T07:39:28.680Z,42.27
2019-04-16T07:40:18.583Z,42.25
2019-04-16T07:41:17.575Z,42.25
2019-04-16T07:42:26.149Z,41.64
2019-04-16T07:43:17.560Z,42.15
2019-04-16T07:44:17.544Z,41.85
2019-04-16T07:45:17.551Z,41.85
2019-04-16T07:46:17.523Z,42.35
2019-04-16T07:47:20.086Z,42.47
2019-04-16T07:48:17.506Z,43.29
2019-04-16T07:49:17.485Z,42.98
2019-04-16T07:50:17.466Z,43.49
2019-04-16T07:51:17.460Z,42.96
2019-04-16T07:52:17.458Z,41.26
2019-04-16T07:53:22.479Z,41.66
2019-04-16T07:54:18.810Z,41.68
2019-04-16T07:55:17.414Z,41.26
2019-04-16T07:56:17.400Z,41.12
2019-04-16T07:57:17.404Z,39.58
2019-04-16T07:58:17.391Z,39.58
2019-04-16T07:59:17.380Z,39.44
2019-04-16T08:00:17.358Z,39.44
2019-04-16T08:01:17.352Z,39.14
2019-04-16T08:02:17.693Z,39.26
2019-04-16T08:03:17.336Z,40.25
2019-04-16T08:04:28.638Z,38.49
2019-04-16T08:05:18.296Z,38.07
2019-04-16T08:06:17.287Z,37.45
2019-04-16T08:07:20.202Z,37.23
2019-04-16T08:08:17.286Z,37.19
2019-04-16T08:09:17.271Z,35.85
2019-04-16T08:10:17.260Z,35.43
2019-04-16T08:11:17.244Z,35.21
2019-04-16T08:12:29.913Z,35.11
2019-04-16T08:13:18.222Z,34.67
2019-04-16T08:14:17.232Z,33.75
2019-04-16T08:15:22.213Z,33.40
2019-04-16T08:16:17.173Z,33.19
2019-04-16T08:17:17.163Z,32.99
2019-04-16T08:18:17.161Z,32.30
2019-04-16T08:19:17.154Z,33.32
2019-04-16T08:20:20.063Z,33.34
2019-04-16T08:21:17.119Z,33.86
2019-04-16T08:22:17.138Z,33.84
2019-04-16T08:23:19.622Z,33.62
2019-04-16T08:24:17.093Z,33.95
2019-04-16T08:25:17.088Z,33.77
2019-04-16T08:26:22.095Z,33.97
2019-04-16T08:27:19.082Z,33.75
2019-04-16T08:28:17.060Z,34.34
2019-04-16T08:29:17.044Z,33.11
2019-04-16T08:30:17.018Z,32.90
2019-04-16T08:31:17.016Z,33.52
2019-04-16T08:32:17.123Z,33.47
2019-04-16T08:33:16.991Z,33.79
2019-04-16T08:34:16.985Z,36.35
2019-04-16T08:35:16.961Z,36.39
2019-04-16T08:36:16.953Z,37.51
2019-04-16T08:37:21.980Z,37.84
2019-04-16T08:38:16.944Z,37.73
2019-04-16T08:39:16.956Z,37.84
2019-04-16T08:40:16.905Z,38.07
2019-04-16T08:41:21.128Z,37.85
2019-04-16T08:42:16.886Z,38.60
2019-04-16T08:43:16.872Z,37.48
2019-04-16T08:44:16.890Z,36.59
2019-04-16T08:45:16.856Z,37.09
2019-04-16T08:46:16.837Z,36.61
2019-04-16T08:47:16.830Z,37.95
2019-04-16T08:48:21.848Z,37.87
2019-04-16T08:49:22.099Z,38.28
2019-04-16T08:50:17.790Z,38.28
2019-04-16T08:51:29.629Z,39.20
2019-04-16T08:52:17.890Z,38.90
2019-04-16T08:53:16.758Z,39.48
2019-04-16T08:54:18.148Z,39.39
2019-04-16T08:55:16.752Z,39.52
2019-04-16T08:56:16.737Z,38.59
2019-04-16T08:57:16.713Z,39.91
2019-04-16T08:58:16.702Z,39.18
2019-04-16T08:59:21.720Z,39.52
2019-04-16T09:00:16.709Z,39.10
2019-04-16T09:01:18.847Z,38.71
2019-04-16T09:02:16.658Z,39.93
2019-04-16T09:03:16.671Z,39.32
2019-04-16T09:04:16.633Z,39.73
2019-04-16T09:05:16.875Z,39.52
2019-04-16T09:06:16.615Z,40.01
2019-04-16T09:07:19.824Z,38.80
2019-04-16T09:08:21.824Z,39.22
2019-04-16T09:09:18.576Z,40.45
2019-04-16T09:10:23.845Z,40.73
2019-04-16T09:11:23.428Z,39.61
2019-04-16T09:12:17.553Z,38.88
2019-04-16T09:13:16.539Z,39.48
2019-04-16T09:14:20.140Z,39.08
2019-04-16T09:15:16.530Z,39.10
2019-04-16T09:16:16.511Z,39.91
2019-04-16T09:17:16.494Z,39.40
2019-04-16T09:18:16.488Z,39.10
2019-04-16T09:19:16.469Z,39.30
2019-04-16T09:20:16.462Z,40.44
2019-04-16T09:21:21.482Z,39.95
2019-04-16T09:22:17.175Z,41.06
2019-04-16T09:23:16.421Z,41.26
2019-04-16T09:24:16.426Z,40.84
2019-04-16T09:25:16.408Z,40.23
2019-04-16T09:26:22.625Z,40.53
2019-04-16T09:27:17.373Z,39.70
2019-04-16T09:28:25.347Z,39.59
2019-04-16T09:29:17.358Z,39.37
2019-04-16T09:30:17.794Z,38.52
2019-04-16T09:31:18.823Z,38.75
2019-04-16T09:32:24.689Z,38.22
2019-04-16T09:33:17.308Z,38.12
2019-04-16T09:34:16.294Z,38.81
2019-04-16T09:35:19.812Z,38.48
2019-04-16T09:36:16.291Z,37.98
2019-04-16T09:37:16.261Z,38.08
2019-04-16T09:38:16.248Z,38.07
2019-04-16T09:39:16.238Z,37.74
2019-04-16T09:40:18.393Z,36.20
2019-04-16T09:41:16.216Z,35.78
2019-04-16T09:42:16.205Z,35.98
2019-04-16T09:43:21.212Z,36.72
2019-04-16T09:44:16.182Z,36.72
2019-04-16T09:45:16.190Z,37.30
2019-04-16T09:46:22.411Z,36.80
2019-04-16T09:47:17.387Z,36.52
2019-04-16T09:48:16.142Z,37.12
2019-04-16T09:49:16.150Z,36.72
2019-04-16T09:50:16.272Z,37.73
2019-04-16T09:51:20.793Z,36.70
2019-04-16T09:52:19.687Z,36.72
2019-04-16T09:53:17.079Z,37.12
2019-04-16T09:54:21.092Z,37.04
2019-04-16T09:55:18.939Z,37.02
2019-04-16T09:56:16.055Z,37.34
2019-04-16T09:57:16.048Z,38.05
2019-04-16T09:58:16.243Z,37.45
2019-04-16T09:59:16.811Z,38.05
2019-04-16T10:00:17.340Z,37.74
2019-04-16T10:01:16.001Z,37.85
2019-04-16T10:02:15.978Z,36.84
2019-04-16T10:03:15.970Z,37.76
2019-04-16T10:04:15.965Z,37.56
2019-04-16T10:05:21.176Z,38.40
2019-04-16T10:06:15.948Z,38.12
2019-04-16T10:07:15.924Z,37.73
2019-04-16T10:08:15.926Z,38.54
2019-04-16T10:09:20.024Z,38.75
2019-04-16T10:10:17.097Z,38.15
2019-04-16T10:11:18.528Z,38.54
2019-04-16T10:12:15.867Z,38.04
2019-04-16T10:13:29.395Z,37.82
2019-04-16T10:14:16.855Z,38.44
2019-04-16T10:15:15.861Z,37.92
2019-04-16T10:16:20.865Z,37.31
2019-04-16T10:17:15.818Z,37.92
2019-04-16T10:18:15.821Z,37.92
2019-04-16T10:19:15.795Z,38.02
2019-04-16T10:20:15.787Z,37.58
2019-04-16T10:21:18.760Z,36.86
2019-04-16T10:22:15.763Z,36.94
2019-04-16T10:23:15.771Z,36.74
2019-04-16T10:24:15.747Z,36.64
2019-04-16T10:25:15.730Z,36.64
2019-04-16T10:26:15.726Z,35.71
2019-04-16T10:27:20.736Z,35.91
2019-04-16T10:28:15.800Z,35.73
2019-04-16T10:29:15.688Z,35.73
2019-04-16T10:30:15.669Z,36.86
2019-04-16T10:31:15.679Z,36.66
2019-04-16T10:32:17.601Z,36.44
2019-04-16T10:33:15.645Z,36.62
2019-04-16T10:34:15.719Z,35.70
2019-04-16T10:35:15.612Z,35.58
2019-04-16T10:36:15.615Z,35.46
2019-04-16T10:37:15.590Z,34.66
2019-04-16T10:38:20.616Z,34.34
2019-04-16T10:39:15.604Z,34.24
2019-04-16T10:40:15.566Z,34.44
2019-04-16T10:41:15.561Z,35.18
2019-04-16T10:42:15.545Z,35.70
2019-04-16T10:43:15.543Z,36.22
2019-04-16T10:44:15.716Z,36.44
2019-04-16T10:45:15.510Z,36.64
2019-04-16T10:46:15.521Z,36.30
2019-04-16T10:47:16.772Z,35.66
2019-04-16T10:48:15.494Z,35.23
2019-04-16T10:49:20.490Z,33.69
2019-04-16T10:50:15.454Z,33.24
2019-04-16T10:51:16.266Z,33.01
2019-04-16T10:52:15.422Z,32.21
2019-04-16T10:53:15.432Z,31.99
2019-04-16T10:54:15.427Z,31.58
2019-04-16T10:55:18.538Z,30.98
2019-04-16T10:56:20.714Z,31.29
2019-04-16T10:57:16.406Z,31.29
2019-04-16T10:58:15.386Z,31.90
2019-04-16T10:59:15.344Z,32.01
2019-04-16T11:00:20.391Z,32.71
2019-04-16T11:01:15.351Z,32.40
2019-04-16T11:02:15.346Z,31.79
2019-04-16T11:03:15.322Z,32.09
2019-04-16T11:04:15.292Z,32.96
2019-04-16T11:05:19.177Z,33.04
2019-04-16T11:06:15.296Z,33.89
2019-04-16T11:07:15.315Z,35.43
2019-04-16T11:08:15.270Z,35.53
2019-04-16T11:09:15.286Z,35.03
2019-04-16T11:10:15.226Z,35.73
2019-04-16T11:11:20.247Z,35.93
2019-04-16T11:12:15.202Z,35.03
2019-04-16T11:13:15.199Z,35.53
2019-04-16T11:14:15.176Z,35.97
2019-04-16T11:15:15.197Z,37.02
2019-04-16T11:16:15.181Z,37.32
2019-04-16T11:17:15.410Z,37.81
2019-04-16T11:18:15.138Z,36.38
2019-04-16T11:19:15.128Z,36.77
2019-04-16T11:20:15.398Z,35.64
2019-04-16T11:21:15.101Z,35.83
2019-04-16T11:22:20.145Z,35.51
2019-04-16T11:23:15.075Z,35.60
2019-04-16T11:24:15.862Z,35.11
2019-04-16T11:25:15.218Z,34.99
2019-04-16T11:26:15.136Z,35.69
2019-04-16T11:27:15.185Z,35.60
2019-04-16T11:28:15.026Z,35.58
2019-04-16T11:29:15.027Z,35.48
2019-04-16T11:30:15.035Z,35.16
2019-04-16T11:31:14.991Z,34.24
2019-04-16T11:32:14.990Z,33.74
2019-04-16T11:33:19.993Z,34.64
2019-04-16T11:34:15.221Z,34.64
2019-04-16T11:35:17.367Z,33.94
2019-04-16T11:36:19.559Z,34.94
2019-04-16T11:37:15.953Z,35.25
2019-04-16T11:38:17.539Z,35.23
2019-04-16T11:39:14.964Z,34.31
2019-04-16T11:40:14.886Z,33.91
2019-04-16T11:41:15.072Z,33.89
2019-04-16T11:42:15.003Z,33.91
2019-04-16T11:43:14.878Z,35.85
2019-04-16T11:44:19.872Z,35.25
2019-04-16T11:45:14.868Z,35.56
2019-04-16T11:46:14.887Z,35.76
2019-04-16T11:47:14.953Z,35.26
2019-04-16T11:48:14.856Z,36.16
2019-04-16T11:49:14.787Z,36.76
2019-04-16T11:50:14.824Z,36.58
2019-04-16T11:51:14.799Z,36.58
2019-04-16T11:52:14.776Z,37.50
2019-04-16T11:53:14.798Z,37.22
2019-04-16T11:54:14.764Z,37.02
2019-04-16T11:55:19.761Z,37.52
2019-04-16T11:56:14.706Z,36.38
2019-04-16T11:57:14.756Z,36.60
2019-04-16T11:58:14.690Z,36.28
2019-04-16T11:59:14.716Z,36.88
2019-04-16T12:00:14.709Z,36.07
2019-04-16T12:01:14.653Z,36.68
2019-04-16T12:02:14.774Z,36.90
2019-04-16T12:03:14.908Z,36.48
2019-04-16T12:04:16.446Z,36.18
2019-04-16T12:05:14.637Z,36.50
2019-04-16T12:06:27.798Z,37.22
2019-04-16T12:07:15.628Z,37.74
2019-04-16T12:08:14.594Z,37.54
2019-04-16T12:09:14.893Z,37.72
2019-04-16T12:10:14.584Z,37.18
2019-04-16T12:11:14.590Z,36.94
2019-04-16T12:12:14.532Z,36.65
2019-04-16T12:13:14.834Z,35.43
2019-04-16T12:14:28.885Z,34.71
2019-04-16T12:15:15.540Z,34.28
2019-04-16T12:16:14.629Z,33.86
2019-04-16T12:17:19.501Z,35.43
2019-04-16T12:18:14.467Z,34.68
2019-04-16T12:19:14.699Z,33.56
2019-04-16T12:20:14.445Z,33.33
2019-04-16T12:21:14.446Z,33.25
2019-04-16T12:22:14.452Z,33.28
2019-04-16T12:23:14.605Z,33.88
2019-04-16T12:24:14.707Z,33.54
2019-04-16T12:25:14.406Z,34.06
2019-04-16T12:26:14.647Z,34.00
2019-04-16T12:27:14.390Z,34.73
2019-04-16T12:28:19.426Z,35.03
2019-04-16T12:29:14.402Z,35.55
2019-04-16T12:30:14.584Z,35.14
2019-04-16T12:31:16.621Z,35.76
2019-04-16T12:32:14.350Z,35.46
2019-04-16T12:33:14.611Z,36.50
2019-04-16T12:34:14.333Z,37.20
2019-04-16T12:35:14.490Z,36.32
2019-04-16T12:36:14.729Z,37.24
2019-04-16T12:37:14.254Z,37.32
2019-04-16T12:38:18.377Z,37.32
2019-04-16T12:39:19.851Z,37.22
2019-04-16T12:40:19.017Z,37.32
2019-04-16T12:41:15.206Z,37.72
2019-04-16T12:42:14.203Z,37.42
2019-04-16T12:43:15.989Z,37.22
2019-04-16T12:44:14.178Z,37.32
2019-04-16T12:45:14.437Z,37.32
2019-04-16T12:46:14.182Z,37.22
2019-04-16T12:47:14.149Z,36.52
2019-04-16T12:48:14.151Z,37.52
2019-04-16T12:49:14.197Z,37.13
2019-04-16T12:50:19.190Z,37.74
2019-04-16T12:51:14.139Z,37.94
2019-04-16T12:52:17.193Z,37.74